Time;durP1;ratioP1;P1;durP2;ratioP2;P2;SDS_P1;SDS_P2;PMS_P1;PMS_P2;Temp;Humidity;BMP_temperature;BMP_pressure;BME280_temperature;BME280_humidity;BME280_pressure;Samples;Min_cycle;Max_cycle;Signal;HPM_P1;HPM_P2
2024/01/05 00:00:34;;;;;;;5.88;1.05;;;;;;;7.39;100.00;96736.13;5021054;28;20045;-77
2024/01/05 00:03:04;;;;;;;6.07;1.20;;;;;;;7.29;100.00;96736.47;5033494;28;20512;-75
2024/01/05 00:05:31;;;;;;;12.57;1.58;;;;;;;7.30;100.00;96746.09;5021984;28;20250;-78
2024/01/05 00:07:57;;;;;;;4.03;1.15;;;;;;;7.28;100.00;96740.25;5023558;28;20076;-75
2024/01/05 00:10:24;;;;;;;8.07;1.30;;;;;;;7.29;100.00;96733.75;5036142;28;20050;-77
2024/01/05 00:12:51;;;;;;;8.48;1.55;;;;;;;7.20;100.00;96738.31;5038583;28;20272;-76
2024/01/05 00:15:18;;;;;;;5.28;1.20;;;;;;;7.24;100.00;96738.50;5019828;28;20059;-76
2024/01/05 00:17:45;;;;;;;4.55;1.08;;;;;;;7.28;100.00;96742.13;5047618;28;20046;-76
2024/01/05 00:20:12;;;;;;;6.82;1.17;;;;;;;7.18;100.00;96737.06;5038210;28;20041;-77
2024/01/05 00:22:40;;;;;;;8.98;1.00;;;;;;;7.13;100.00;96732.63;5044731;28;20056;-77
2024/01/05 00:25:07;;;;;;;7.28;1.10;;;;;;;7.03;100.00;96721.38;5043490;28;20450;-76
2024/01/05 00:27:34;;;;;;;8.40;1.10;;;;;;;6.94;100.00;96717.88;5041636;28;20037;-77
2024/01/05 00:30:03;;;;;;;6.75;0.88;;;;;;;7.19;100.00;96717.91;5038759;28;20045;-76
2024/01/05 00:32:30;;;;;;;6.30;1.40;;;;;;;6.89;100.00;96710.75;5028650;28;20103;-76
2024/01/05 00:34:57;;;;;;;8.85;1.30;;;;;;;6.96;100.00;96729.91;5020319;28;20044;-76
2024/01/05 00:37:24;;;;;;;6.72;1.42;;;;;;;6.86;100.00;96730.22;5045472;28;20495;-77
2024/01/05 00:39:50;;;;;;;8.82;1.00;;;;;;;6.85;100.00;96731.31;5047720;28;20056;-76
2024/01/05 00:42:17;;;;;;;8.32;1.00;;;;;;;6.71;100.00;96738.72;5050127;28;20056;-76
2024/01/05 00:44:44;;;;;;;8.20;1.27;;;;;;;6.88;100.00;96736.06;5024798;28;20044;-77
2024/01/05 00:47:10;;;;;;;8.57;1.42;;;;;;;7.02;100.00;96727.88;5043045;28;20076;-76
2024/01/05 00:49:38;;;;;;;6.05;0.95;;;;;;;6.96;100.00;96729.13;5044283;28;20061;-77
2024/01/05 00:52:05;;;;;;;3.75;0.90;;;;;;;6.75;100.00;96735.09;5029804;28;20064;-76
2024/01/05 00:54:32;;;;;;;8.52;1.23;;;;;;;6.90;100.00;96736.53;5026583;28;20044;-76
2024/01/05 00:56:58;;;;;;;7.88;1.20;;;;;;;6.77;100.00;96738.25;5039209;28;20591;-74
2024/01/05 00:59:25;;;;;;;6.78;0.88;;;;;;;6.71;100.00;96726.03;5039444;28;20071;-78
2024/01/05 01:01:53;;;;;;;5.25;0.73;;;;;;;6.67;100.00;96741.22;5059862;28;20059;-74
2024/01/05 01:04:20;;;;;;;7.78;0.98;;;;;;;6.75;100.00;96728.91;5062907;28;20046;-75
2024/01/05 01:06:47;;;;;;;5.90;1.00;;;;;;;6.74;100.00;96735.38;5053341;28;20047;-76
2024/01/05 01:09:14;;;;;;;8.55;1.17;;;;;;;6.66;100.00;96736.94;5053633;28;20147;-76
2024/01/05 01:11:41;;;;;;;9.52;0.93;;;;;;;6.76;100.00;96733.19;5040929;28;20048;-77
2024/01/05 01:14:07;;;;;;;10.52;1.15;;;;;;;6.79;100.00;96735.22;5041740;28;20037;-77
2024/01/05 01:16:35;;;;;;;9.23;1.13;;;;;;;6.67;100.00;96724.28;5046660;28;20048;-77
2024/01/05 01:19:03;;;;;;;9.13;1.30;;;;;;;6.88;100.00;96723.41;5045312;28;20552;-76
2024/01/05 01:21:31;;;;;;;4.85;1.10;;;;;;;6.94;100.00;96716.00;5045579;28;20470;-78
2024/01/05 01:23:57;;;;;;;5.18;1.15;;;;;;;6.87;100.00;96694.13;5043065;28;20049;-77
2024/01/05 01:26:24;;;;;;;7.00;0.93;;;;;;;6.97;100.00;96693.81;5047315;28;20132;-77
2024/01/05 01:28:51;;;;;;;7.90;0.90;;;;;;;6.95;100.00;96704.09;5046392;28;20511;-77
2024/01/05 01:31:18;;;;;;;8.00;1.23;;;;;;;6.89;100.00;96700.75;5049399;28;20040;-77
2024/01/05 01:33:44;;;;;;;9.52;0.70;;;;;;;7.04;100.00;96704.94;5049211;28;20112;-77
2024/01/05 01:36:12;;;;;;;5.78;1.00;;;;;;;6.82;100.00;96710.41;5046959;28;20040;-77
2024/01/05 01:38:38;;;;;;;5.63;1.10;;;;;;;6.96;100.00;96707.59;5051063;28;20044;-77
2024/01/05 01:41:05;;;;;;;8.15;1.30;;;;;;;6.89;100.00;96710.75;5049004;28;20045;-78
2024/01/05 01:43:32;;;;;;;10.05;1.23;;;;;;;6.85;100.00;96707.88;5042523;28;20053;-76
2024/01/05 01:46:00;;;;;;;9.93;1.40;;;;;;;6.89;100.00;96692.69;5038164;28;20037;-75
2024/01/05 01:48:29;;;;;;;5.35;1.10;;;;;;;6.91;100.00;96689.72;5027082;28;20049;-78
2024/01/05 01:50:57;;;;;;;3.65;0.77;;;;;;;6.83;100.00;96710.09;5033758;28;20136;-77
2024/01/05 01:53:26;;;;;;;4.82;0.88;;;;;;;6.82;100.00;96697.75;5022004;28;20053;-77
2024/01/05 01:55:53;;;;;;;11.75;1.15;;;;;;;6.84;100.00;96703.59;5037620;28;20041;-78
2024/01/05 01:58:21;;;;;;;5.07;0.95;;;;;;;6.81;100.00;96698.84;5042486;28;20076;-78
2024/01/05 02:00:49;;;;;;;9.05;1.13;;;;;;;6.70;100.00;96699.47;5026190;28;20076;-77
2024/01/05 02:03:17;;;;;;;6.13;1.02;;;;;;;6.81;100.00;96698.84;5041410;28;20471;-78
2024/01/05 02:05:46;;;;;;;8.90;1.08;;;;;;;6.80;100.00;96708.03;5036538;28;20045;-78
2024/01/05 02:08:13;;;;;;;11.50;1.02;;;;;;;6.78;100.00;96704.88;5030450;28;20050;-76
2024/01/05 02:10:40;;;;;;;6.25;1.10;;;;;;;6.88;100.00;96685.75;5040340;28;20068;-77
2024/01/05 02:13:08;;;;;;;11.77;0.98;;;;;;;6.97;100.00;96688.44;5032141;28;20050;-76
2024/01/05 02:15:34;;;;;;;7.60;0.95;;;;;;;6.93;100.00;96690.19;5022152;28;20056;-78
2024/01/05 02:18:10;;;;;;;9.23;1.10;;;;;;;6.82;100.00;96686.19;5029279;28;20053;-76
2024/01/05 02:20:37;;;;;;;6.38;1.23;;;;;;;6.76;100.00;96682.09;5056671;28;20591;-77
2024/01/05 02:23:07;;;;;;;11.90;1.23;;;;;;;6.82;100.00;96689.69;5049119;28;20064;-77
2024/01/05 02:25:34;;;;;;;6.93;1.23;;;;;;;6.88;100.00;96691.13;5052135;28;20049;-77
2024/01/05 02:28:00;;;;;;;17.05;2.17;;;;;;;6.95;100.00;96687.16;5046314;28;20129;-78
2024/01/05 02:30:27;;;;;;;8.10;1.05;;;;;;;6.86;100.00;96687.94;5046340;28;20056;-77
2024/01/05 02:32:54;;;;;;;3.80;0.90;;;;;;;6.88;100.00;96682.25;5053567;28;20048;-77
2024/01/05 02:35:21;;;;;;;3.65;1.23;;;;;;;6.86;100.00;96685.25;5049682;28;20135;-78
2024/01/05 02:37:48;;;;;;;8.50;1.58;;;;;;;7.06;100.00;96683.06;5054066;28;20560;-76
2024/01/05 02:40:15;;;;;;;8.88;1.27;;;;;;;7.22;100.00;96668.06;5050857;28;20447;-78
2024/01/05 02:42:42;;;;;;;5.85;1.02;;;;;;;7.38;100.00;96672.63;5061105;28;20092;-77
2024/01/05 02:45:10;;;;;;;10.63;1.90;;;;;;;7.30;100.00;96676.09;5058578;28;20044;-78
2024/01/05 02:47:36;;;;;;;7.47;1.35;;;;;;;7.21;100.00;96667.25;5056218;28;20046;-78
2024/01/05 02:50:03;;;;;;;4.05;1.10;;;;;;;7.28;100.00;96664.88;5049946;28;20076;-76
2024/01/05 02:52:30;;;;;;;9.68;1.02;;;;;;;7.33;100.00;96663.94;5045266;28;20037;-76
2024/01/05 02:54:57;;;;;;;4.22;0.90;;;;;;;7.33;100.00;96656.63;5042224;28;20079;-76
2024/01/05 02:57:24;;;;;;;12.13;1.13;;;;;;;7.46;100.00;96650.28;5051953;28;20056;-76
2024/01/05 02:59:51;;;;;;;8.70;1.13;;;;;;;7.51;100.00;96652.81;5051842;28;20057;-78
2024/01/05 03:02:18;;;;;;;8.02;1.20;;;;;;;7.52;100.00;96651.72;5050256;28;20098;-77
2024/01/05 03:04:45;;;;;;;10.95;1.52;;;;;;;7.60;100.00;96643.94;5078699;28;20059;-78
2024/01/05 03:07:12;;;;;;;8.60;1.30;;;;;;;7.51;100.00;96639.34;5062550;28;20045;-78
2024/01/05 03:09:43;;;;;;;6.07;1.40;;;;;;;7.40;100.00;96634.63;5058017;28;20043;-76
2024/01/05 03:12:09;;;;;;;7.43;1.13;;;;;;;7.51;100.00;96642.03;5062840;28;20526;-76
2024/01/05 03:14:36;;;;;;;9.45;1.05;;;;;;;7.52;100.00;96632.06;5055996;28;20060;-78
2024/01/05 03:17:03;;;;;;;9.55;1.02;;;;;;;7.40;100.00;96630.03;5044241;28;20045;-76
2024/01/05 03:19:30;;;;;;;9.27;1.35;;;;;;;7.31;100.00;96629.25;5062538;28;20056;-76
2024/01/05 03:21:57;;;;;;;9.50;1.55;;;;;;;7.35;100.00;96615.94;5061424;28;20044;-77
2024/01/05 03:24:24;;;;;;;3.55;0.93;;;;;;;7.45;100.00;96621.81;5048239;28;20045;-78
2024/01/05 03:26:51;;;;;;;6.72;1.30;;;;;;;7.50;100.00;96615.44;5046846;28;20049;-77
2024/01/05 03:29:18;;;;;;;5.43;1.45;;;;;;;7.51;100.00;96607.03;5050788;28;20044;-75
2024/01/05 03:31:46;;;;;;;2.78;0.80;;;;;;;7.44;100.00;96598.66;5041560;28;22050;-76
2024/01/05 03:34:13;;;;;;;9.38;1.30;;;;;;;7.54;100.00;96597.53;5041954;28;20037;-75
2024/01/05 03:36:41;;;;;;;7.03;1.50;;;;;;;7.55;100.00;96582.97;5026135;28;20046;-77
2024/01/05 03:39:08;;;;;;;3.13;0.90;;;;;;;7.56;100.00;96581.06;5039027;28;20072;-77
2024/01/05 03:41:35;;;;;;;12.45;1.15;;;;;;;7.52;100.00;96575.53;5056008;28;20063;-76
2024/01/05 03:44:02;;;;;;;6.47;1.10;;;;;;;7.41;100.00;96566.19;5049873;28;20328;-76
2024/01/05 03:46:29;;;;;;;3.63;0.90;;;;;;;7.23;100.00;96567.34;5048334;28;20049;-76
2024/01/05 03:48:56;;;;;;;6.93;1.35;;;;;;;7.29;100.00;96561.47;5051825;28;20056;-76
2024/01/05 03:51:23;;;;;;;2.72;1.23;;;;;;;7.36;100.00;96559.09;5045566;28;20054;-77
2024/01/05 03:53:50;;;;;;;5.53;1.20;;;;;;;7.34;100.00;96571.28;5056478;28;20045;-77
2024/01/05 03:56:17;;;;;;;9.85;1.48;;;;;;;7.27;100.00;96562.91;5033768;28;20525;-76
2024/01/05 03:58:44;;;;;;;8.02;1.45;;;;;;;7.25;100.00;96551.69;5036013;28;20065;-75
2024/01/05 04:01:11;;;;;;;8.82;1.52;;;;;;;7.31;100.00;96545.00;5022914;28;20176;-77
2024/01/05 04:03:37;;;;;;;7.50;1.60;;;;;;;7.18;100.00;96538.69;5020054;28;20037;-77
2024/01/05 04:06:04;;;;;;;6.03;1.75;;;;;;;6.98;100.00;96525.91;5033853;28;20046;-76
2024/01/05 04:08:31;;;;;;;7.93;1.15;;;;;;;6.96;100.00;96530.03;5040825;28;20042;-77
2024/01/05 04:10:58;;;;;;;11.13;1.55;;;;;;;6.94;100.00;96527.66;5038970;28;20053;-77
2024/01/05 04:13:25;;;;;;;8.02;1.60;;;;;;;7.12;100.00;96534.63;5036462;28;20116;-75
2024/01/05 04:15:52;;;;;;;7.53;1.40;;;;;;;7.16;100.00;96535.53;5055864;28;20041;-76
2024/01/05 04:18:19;;;;;;;4.72;1.33;;;;;;;7.23;100.00;96543.13;5028666;28;20670;-77
2024/01/05 04:20:45;;;;;;;8.18;1.55;;;;;;;7.06;100.00;96527.00;5028561;28;20052;-76
2024/01/05 04:23:12;;;;;;;7.50;1.48;;;;;;;7.13;100.00;96514.66;5036667;28;20045;-77
2024/01/05 04:25:39;;;;;;;7.93;1.17;;;;;;;7.09;100.00;96511.03;5045187;28;20050;-76
2024/01/05 04:28:06;;;;;;;5.40;1.25;;;;;;;7.07;100.00;96504.38;5049455;28;20045;-77
2024/01/05 04:30:33;;;;;;;5.13;1.33;;;;;;;7.12;100.00;96510.41;5043524;28;20279;-78
2024/01/05 04:32:59;;;;;;;6.95;1.52;;;;;;;7.19;100.00;96534.13;5047103;28;20049;-76
2024/01/05 04:35:27;;;;;;;7.57;1.73;;;;;;;7.25;100.00;96549.00;5057049;28;20037;-77
2024/01/05 04:37:54;;;;;;;5.35;1.02;;;;;;;6.84;100.00;96536.03;5053089;28;20048;-78
2024/01/05 04:40:21;;;;;;;8.90;1.40;;;;;;;6.92;100.00;96537.94;5049497;28;20058;-78
2024/01/05 04:42:48;;;;;;;5.20;1.65;;;;;;;7.00;100.00;96528.28;5053145;28;20101;-77
2024/01/05 04:45:16;;;;;;;9.55;1.65;;;;;;;7.14;100.00;96535.06;5051093;28;20052;-78
2024/01/05 04:47:46;;;;;;;4.55;1.25;;;;;;;7.19;100.00;96534.91;5044180;28;20209;-78
2024/01/05 04:50:13;;;;;;;5.28;1.23;;;;;;;7.18;100.00;96537.91;5048946;28;20045;-76
2024/01/05 04:52:40;;;;;;;8.30;1.60;;;;;;;7.25;100.00;96536.31;5035345;28;20049;-76
2024/01/05 04:55:06;;;;;;;13.35;1.63;;;;;;;7.28;100.00;96530.28;5046149;28;20816;-76
2024/01/05 04:57:33;;;;;;;4.82;1.60;;;;;;;7.42;100.00;96541.66;5017501;28;20053;-76
2024/01/05 05:00:00;;;;;;;7.50;1.65;;;;;;;7.48;100.00;96539.59;5023967;28;20091;-75
2024/01/05 05:02:27;;;;;;;8.20;1.63;;;;;;;7.45;100.00;96541.03;5035862;28;20068;-76
2024/01/05 05:04:54;;;;;;;8.68;1.50;;;;;;;7.39;100.00;96538.81;5025412;28;20693;-77
2024/01/05 05:07:21;;;;;;;11.57;1.90;;;;;;;7.40;100.00;96526.94;5029717;28;20041;-76
2024/01/05 05:09:49;;;;;;;11.55;1.60;;;;;;;7.35;100.00;96525.22;5029134;28;20049;-77
2024/01/05 05:12:15;;;;;;;5.57;1.85;;;;;;;7.29;100.00;96523.81;5036986;28;20136;-76
2024/01/05 05:14:43;;;;;;;6.93;1.63;;;;;;;7.28;100.00;96527.59;5028408;28;20042;-77
2024/01/05 05:17:10;;;;;;;11.85;1.60;;;;;;;7.30;100.00;96525.38;5014878;28;20045;-77
2024/01/05 05:19:37;;;;;;;7.25;2.30;;;;;;;7.43;100.00;96521.69;5015300;28;20603;-76
2024/01/05 05:22:05;;;;;;;5.20;1.40;;;;;;;7.43;100.00;96524.38;5016329;28;20111;-76
2024/01/05 05:24:31;;;;;;;9.32;2.20;;;;;;;7.42;100.00;96514.75;4997696;28;20046;-77
2024/01/05 05:26:58;;;;;;;5.85;1.50;;;;;;;7.32;100.00;96517.78;5028129;28;20051;-77
2024/01/05 05:29:25;;;;;;;5.57;1.55;;;;;;;7.40;100.00;96519.66;5014832;28;20329;-78
2024/01/05 05:31:52;;;;;;;11.63;1.90;;;;;;;6.84;100.00;96520.69;5012850;28;20064;-75
2024/01/05 05:34:18;;;;;;;8.38;2.03;;;;;;;6.77;100.00;96515.00;5014327;28;20042;-78
2024/01/05 05:36:45;;;;;;;4.63;1.48;;;;;;;6.68;100.00;96529.56;5035759;28;20471;-77
2024/01/05 05:39:12;;;;;;;11.50;2.10;;;;;;;6.75;100.00;96516.44;5014061;28;20045;-78
2024/01/05 05:41:39;;;;;;;14.90;2.45;;;;;;;6.70;100.00;96519.28;5024790;28;20041;-79
2024/01/05 05:44:05;;;;;;;7.65;2.00;;;;;;;6.64;100.00;96518.66;5028432;28;20106;-79
2024/01/05 05:46:32;;;;;;;5.70;1.77;;;;;;;6.57;100.00;96520.25;5035349;28;20049;-77
2024/01/05 05:48:59;;;;;;;8.27;2.20;;;;;;;6.61;100.00;96531.94;5029271;28;20107;-78
2024/01/05 05:51:26;;;;;;;6.78;1.90;;;;;;;6.72;100.00;96534.00;5040037;28;20041;-79
2024/01/05 05:53:53;;;;;;;7.53;2.08;;;;;;;6.80;100.00;96521.66;5032363;28;20075;-77
2024/01/05 05:56:19;;;;;;;7.43;1.98;;;;;;;7.06;100.00;96525.13;5031688;28;20039;-78
2024/01/05 05:58:46;;;;;;;12.15;1.83;;;;;;;7.10;100.00;96517.97;5043936;28;20051;-77
2024/01/05 06:01:13;;;;;;;5.57;1.50;;;;;;;7.21;100.00;96513.84;5030463;28;20072;-79
2024/01/05 06:03:40;;;;;;;6.45;1.92;;;;;;;7.35;100.00;96514.47;5033378;28;20067;-76
2024/01/05 06:06:21;;;;;;;9.45;2.25;;;;;;;7.42;100.00;96513.94;5029414;28;20054;-78
2024/01/05 06:08:48;;;;;;;9.27;2.50;;;;;;;7.44;100.00;96519.78;5030438;28;20049;-79
2024/01/05 06:11:16;;;;;;;7.80;1.92;;;;;;;7.40;100.00;96525.03;5030437;28;20133;-76
2024/01/05 06:13:43;;;;;;;9.45;2.38;;;;;;;7.37;100.00;96523.00;5026142;28;20050;-76
2024/01/05 06:16:12;;;;;;;6.70;2.47;;;;;;;7.25;100.00;96506.69;5022292;28;20053;-77
2024/01/05 06:18:39;;;;;;;8.77;2.30;;;;;;;7.42;100.00;96514.75;5016761;28;20056;-77
2024/01/05 06:21:06;;;;;;;5.22;1.35;;;;;;;7.40;100.00;96506.19;5026695;28;20054;-77
2024/01/05 06:23:33;;;;;;;6.60;0.90;;;;;;;7.42;100.00;96512.06;5024217;28;20053;-76
2024/01/05 06:26:00;;;;;;;3.20;0.60;;;;;;;7.53;100.00;96507.09;5022641;28;20393;-77
2024/01/05 06:28:27;;;;;;;1.17;0.38;;;;;;;7.53;100.00;96507.91;5022527;28;20045;-77
2024/01/05 06:31:03;;;;;;;3.22;0.60;;;;;;;7.49;100.00;96519.63;5024082;28;20050;-77
2024/01/05 06:33:30;;;;;;;3.33;0.70;;;;;;;7.64;100.00;96524.47;5035175;28;20041;-76
2024/01/05 06:35:56;;;;;;;1.88;0.55;;;;;;;7.76;100.00;96521.09;5032862;28;20049;-77
2024/01/05 06:38:23;;;;;;;3.47;0.60;;;;;;;7.72;100.00;96526.34;5023620;28;20084;-77
2024/01/05 06:40:50;;;;;;;5.30;0.52;;;;;;;7.82;100.00;96530.59;5024282;28;20444;-76
2024/01/05 06:43:17;;;;;;;4.95;0.70;;;;;;;7.80;100.00;96522.81;5033732;28;20073;-78
2024/01/05 06:45:43;;;;;;;3.38;0.60;;;;;;;7.90;100.00;96522.47;5024373;28;20041;-76
2024/01/05 06:48:10;;;;;;;3.60;0.75;;;;;;;8.03;100.00;96528.72;5009555;28;20061;-77
2024/01/05 06:50:37;;;;;;;4.13;0.80;;;;;;;8.03;100.00;96536.81;5027332;28;20068;-76
2024/01/05 06:53:06;;;;;;;4.00;0.40;;;;;;;8.06;100.00;96525.41;5024344;28;20502;-77
2024/01/05 06:55:33;;;;;;;2.80;0.60;;;;;;;7.99;100.00;96519.72;5020471;28;20042;-77
2024/01/05 06:58:01;;;;;;;3.78;0.77;;;;;;;8.17;100.00;96529.31;5020652;28;20129;-77
2024/01/05 07:00:28;;;;;;;6.57;0.90;;;;;;;8.09;100.00;96525.53;5024865;28;20050;-77
2024/01/05 07:02:55;;;;;;;2.08;0.57;;;;;;;8.11;100.00;96527.91;5025992;28;20072;-76
2024/01/05 07:05:22;;;;;;;3.65;0.75;;;;;;;8.10;100.00;96529.03;5023682;28;20061;-76
2024/01/05 07:07:49;;;;;;;3.65;0.80;;;;;;;8.07;100.00;96526.97;5025385;28;20227;-77
2024/01/05 07:10:15;;;;;;;1.90;0.65;;;;;;;8.16;100.00;96525.00;5025043;28;20064;-76
2024/01/05 07:12:42;;;;;;;2.65;0.88;;;;;;;8.21;100.00;96529.44;5024155;28;20598;-79
2024/01/05 07:15:09;;;;;;;2.72;0.90;;;;;;;8.11;100.00;96517.91;5030949;28;20057;-75
2024/01/05 07:17:36;;;;;;;4.90;0.80;;;;;;;8.18;100.00;96517.41;5018084;28;20050;-77
2024/01/05 07:20:03;;;;;;;8.50;1.00;;;;;;;8.29;100.00;96505.16;5027591;28;20050;-76
2024/01/05 07:22:30;;;;;;;4.85;0.95;;;;;;;8.24;100.00;96505.31;5029945;28;20077;-76
2024/01/05 07:24:57;;;;;;;4.55;0.95;;;;;;;8.15;100.00;96508.03;5027426;28;20042;-77
2024/01/05 07:27:24;;;;;;;2.92;0.82;;;;;;;8.21;100.00;96497.88;5025458;28;20077;-78
2024/01/05 07:29:51;;;;;;;5.03;1.05;;;;;;;8.31;100.00;96508.28;5025705;28;20069;-79
2024/01/05 07:32:18;;;;;;;5.20;1.55;;;;;;;8.34;100.00;96501.47;5023107;28;20073;-77
2024/01/05 07:34:46;;;;;;;2.45;0.80;;;;;;;8.26;100.00;96499.59;5022061;28;20046;-78
2024/01/05 07:37:12;;;;;;;3.85;0.95;;;;;;;8.31;100.00;96488.66;5021293;28;20436;-78
2024/01/05 07:39:39;;;;;;;5.28;0.98;;;;;;;8.31;100.00;96499.44;5023597;28;21532;-78
2024/01/05 07:42:06;;;;;;;3.20;0.90;;;;;;;8.26;100.00;96481.50;5034217;28;20051;-76
2024/01/05 07:44:33;;;;;;;6.72;1.00;;;;;;;8.35;100.00;96490.38;5023513;28;20041;-78
2024/01/05 07:47:00;;;;;;;2.33;0.68;;;;;;;8.36;100.00;96493.84;5022250;28;20053;-77
2024/01/05 07:49:26;;;;;;;3.55;0.90;;;;;;;8.39;100.00;96488.56;5022802;28;20069;-78
2024/01/05 07:51:54;;;;;;;6.85;1.10;;;;;;;8.49;100.00;96488.19;5023058;28;20054;-77
2024/01/05 07:54:21;;;;;;;7.90;1.10;;;;;;;8.42;100.00;96490.63;5038288;28;20049;-78
2024/01/05 07:56:48;;;;;;;7.55;1.08;;;;;;;8.58;100.00;96491.63;5021884;28;20061;-77
2024/01/05 07:59:15;;;;;;;3.63;1.02;;;;;;;8.46;100.00;96477.28;5028470;28;20049;-77
2024/01/05 08:01:43;;;;;;;4.15;1.00;;;;;;;8.39;100.00;96482.41;5030164;28;20049;-78
2024/01/05 08:04:10;;;;;;;9.05;0.98;;;;;;;8.47;100.00;96471.53;5022291;28;20793;-78
2024/01/05 08:06:37;;;;;;;2.92;1.20;;;;;;;8.33;100.00;96476.44;5017592;28;20512;-79
2024/01/05 08:09:04;;;;;;;3.42;0.80;;;;;;;8.44;100.00;96469.50;5020247;28;20045;-78
2024/01/05 08:11:31;;;;;;;5.68;1.00;;;;;;;8.50;100.00;96470.91;5026749;28;20038;-78
2024/01/05 08:13:58;;;;;;;3.60;0.93;;;;;;;8.51;100.00;96466.28;5040669;28;20554;-78
2024/01/05 08:16:25;;;;;;;2.08;0.98;;;;;;;8.37;100.00;96461.16;5019587;28;20103;-78
2024/01/05 08:18:52;;;;;;;5.00;0.93;;;;;;;8.39;100.00;96463.53;5022202;28;20130;-79
2024/01/05 08:21:19;;;;;;;7.70;1.13;;;;;;;8.48;100.00;96453.47;5017392;28;20053;-78
2024/01/05 08:23:46;;;;;;;5.68;1.10;;;;;;;8.48;100.00;96456.97;5035087;28;20049;-78
2024/01/05 08:26:17;;;;;;;8.43;0.80;;;;;;;8.60;100.00;96465.09;5045530;28;20424;-77
2024/01/05 08:28:45;;;;;;;4.88;0.90;;;;;;;8.67;100.00;96456.50;5027281;28;20044;-78
2024/01/05 08:31:12;;;;;;;8.07;1.20;;;;;;;8.96;100.00;96455.56;5027258;28;20076;-79
2024/01/05 08:33:39;;;;;;;7.22;1.10;;;;;;;8.68;100.00;96445.34;5033732;28;20523;-77
2024/01/05 08:36:07;;;;;;;3.78;0.93;;;;;;;8.71;100.00;96452.00;5045096;28;20605;-77
2024/01/05 08:38:34;;;;;;;5.47;1.40;;;;;;;8.66;100.00;96430.63;5045128;28;20076;-80
2024/01/05 08:41:01;;;;;;;8.18;1.35;;;;;;;8.66;100.00;96442.19;5047072;28;20061;-78
2024/01/05 08:43:27;;;;;;;5.55;0.80;;;;;;;8.69;100.00;96441.53;5049221;28;20065;-78
2024/01/05 08:45:54;;;;;;;4.10;1.20;;;;;;;8.78;100.00;96436.06;5061596;28;20056;-79
2024/01/05 08:48:21;;;;;;;8.90;1.10;;;;;;;8.88;100.00;96440.25;5025728;28;20053;-78
2024/01/05 08:50:48;;;;;;;8.13;1.45;;;;;;;8.80;100.00;96443.84;5036792;28;20045;-79
2024/01/05 08:53:15;;;;;;;4.53;1.10;;;;;;;8.74;100.00;96443.25;5035701;28;20048;-79
2024/01/05 08:55:41;;;;;;;7.97;1.25;;;;;;;8.88;100.00;96449.13;5035138;28;20077;-81
2024/01/05 08:58:10;;;;;;;8.30;1.33;;;;;;;8.94;100.00;96447.00;5033762;28;20543;-79
2024/01/05 09:00:37;;;;;;;6.50;1.15;;;;;;;8.96;100.00;96450.94;5038096;28;20056;-79
2024/01/05 09:03:04;;;;;;;5.88;1.33;;;;;;;8.99;100.00;96452.19;5035883;28;20160;-78
2024/01/05 09:05:31;;;;;;;5.28;1.05;;;;;;;8.93;100.00;96457.00;5026233;28;20050;-79
2024/01/05 09:07:58;;;;;;;9.65;1.27;;;;;;;8.99;100.00;96457.59;5055725;28;20042;-79
2024/01/05 09:10:25;;;;;;;9.90;1.45;;;;;;;9.09;100.00;96460.66;5006851;28;20054;-78
2024/01/05 09:12:52;;;;;;;7.55;1.30;;;;;;;9.33;100.00;96471.53;5040471;28;20049;-78
2024/01/05 09:15:20;;;;;;;2.60;1.05;;;;;;;9.51;100.00;96466.72;5023650;28;21093;-77
2024/01/05 09:17:47;;;;;;;4.20;0.80;;;;;;;9.65;100.00;96475.25;5042847;28;20059;-77
2024/01/05 09:20:14;;;;;;;4.28;0.75;;;;;;;9.76;100.00;96457.50;5047671;28;25414;-79
2024/01/05 09:22:41;;;;;;;3.88;0.82;;;;;;;9.92;100.00;96463.81;5045085;28;20041;-77
2024/01/05 09:25:08;;;;;;;6.55;1.02;;;;;;;9.61;100.00;96471.66;5068442;28;20050;-78
2024/01/05 09:27:35;;;;;;;6.07;0.85;;;;;;;9.55;100.00;96477.66;5051808;28;20092;-79
2024/01/05 09:30:03;;;;;;;5.68;0.77;;;;;;;9.99;100.00;96474.03;5043010;28;20041;-79
2024/01/05 09:32:30;;;;;;;3.33;1.10;;;;;;;10.19;100.00;96472.38;5042611;28;20424;-78
2024/01/05 09:34:57;;;;;;;4.22;0.60;;;;;;;10.28;100.00;96465.69;5045203;28;20048;-78
2024/01/05 09:37:24;;;;;;;6.63;0.85;;;;;;;10.40;100.00;96465.66;5041388;28;20125;-77
2024/01/05 09:39:52;;;;;;;4.10;0.98;;;;;;;10.50;100.00;96450.88;5039092;28;20133;-79
2024/01/05 09:42:19;;;;;;;3.80;0.90;;;;;;;10.70;100.00;96474.28;5047233;28;20048;-77
2024/01/05 09:44:48;;;;;;;8.25;1.13;;;;;;;10.89;100.00;96477.13;5020866;28;21015;-78
2024/01/05 09:47:17;;;;;;;5.07;0.93;;;;;;;10.90;100.00;96467.09;5035560;28;20124;-79
2024/01/05 09:49:45;;;;;;;5.95;0.98;;;;;;;10.87;100.00;96479.38;5009827;28;20107;-78
2024/01/05 09:52:13;;;;;;;5.88;2.05;;;;;;;10.93;100.00;96469.91;5072414;28;20068;-78
2024/01/05 09:54:41;;;;;;;6.60;0.90;;;;;;;11.11;100.00;96473.88;5037121;28;20053;-78
2024/01/05 09:57:15;;;;;;;3.47;0.82;;;;;;;11.43;100.00;96463.09;5042975;28;20045;-77
2024/01/05 09:59:45;;;;;;;8.30;1.00;;;;;;;11.54;100.00;96459.50;5036914;28;20500;-77
2024/01/05 10:02:36;;;;;;;2.60;0.80;;;;;;;11.75;100.00;96460.06;5038945;28;20045;-78
2024/01/05 10:05:04;;;;;;;4.13;1.20;;;;;;;12.15;100.00;96445.50;5029757;28;20668;-78
2024/01/05 10:07:31;;;;;;;2.80;1.10;;;;;;;12.19;100.00;96447.13;5067157;28;20045;-78
2024/01/05 10:09:58;;;;;;;5.28;0.90;;;;;;;12.33;100.00;96461.03;5041106;28;20056;-79
2024/01/05 10:12:25;;;;;;;3.88;0.82;;;;;;;12.32;100.00;96451.31;5036505;28;20911;-79
2024/01/05 10:15:03;;;;;;;3.35;0.80;;;;;;;12.01;100.00;96450.59;5033118;28;20526;-77
2024/01/05 10:17:31;;;;;;;7.95;1.15;;;;;;;11.76;100.00;96445.38;5036846;28;20041;-78
2024/01/05 10:20:12;;;;;;;2.22;0.90;;;;;;;11.54;100.00;96447.88;5022252;28;20049;-78
2024/01/05 10:22:39;;;;;;;2.83;0.77;;;;;;;11.37;100.00;96450.94;5009031;28;20216;-76
2024/01/05 10:25:23;;;;;;;4.60;1.30;;;;;;;10.96;100.00;96442.13;5019525;28;20049;-76
2024/01/05 10:27:53;;;;;;;5.65;0.80;;;;;;;11.03;100.00;96434.19;5021290;28;20042;-77
2024/01/05 10:30:25;;;;;;;4.88;0.95;;;;;;;11.01;100.00;96424.84;5021372;28;20034;-78
2024/01/05 10:33:07;;;;;;;6.25;1.23;;;;;;;11.10;100.00;96420.84;5025329;28;20049;-78
2024/01/05 10:35:35;;;;;;;5.43;0.95;;;;;;;11.18;100.00;96422.59;5020403;28;20366;-77
2024/01/05 10:38:04;;;;;;;3.38;0.82;;;;;;;10.88;100.00;96420.63;5020608;28;20117;-78
2024/01/05 10:40:32;;;;;;;6.50;1.10;;;;;;;11.05;100.00;96412.16;5021572;28;20058;-77
2024/01/05 10:43:12;;;;;;;4.72;0.82;;;;;;;11.19;100.00;96416.06;5030307;28;20109;-77
2024/01/05 10:45:40;;;;;;;8.80;1.00;;;;;;;10.95;100.00;96405.34;5016913;28;20581;-78
2024/01/05 10:48:10;;;;;;;3.10;0.60;;;;;;;10.86;100.00;96423.69;5014071;28;20038;-77
2024/01/05 10:50:40;;;;;;;3.33;0.70;;;;;;;11.04;100.00;96407.91;5052637;28;20095;-77
2024/01/05 10:53:10;;;;;;;9.55;1.08;;;;;;;11.05;100.00;96404.84;5039328;28;20034;-76
2024/01/05 10:55:38;;;;;;;3.53;0.82;;;;;;;11.14;100.00;96408.19;5031140;28;20046;-78
2024/01/05 10:58:07;;;;;;;2.05;0.60;;;;;;;11.10;100.00;96412.72;5037877;28;20042;-79
2024/01/05 11:00:34;;;;;;;5.38;0.80;;;;;;;11.28;100.00;96402.31;5034760;28;20045;-78
2024/01/05 11:03:17;;;;;;;1.70;0.80;;;;;;;11.17;100.00;96385.78;5048547;28;20416;-78
2024/01/05 11:05:45;;;;;;;3.08;0.80;;;;;;;11.24;100.00;96396.84;5029678;28;20435;-77
2024/01/05 11:08:18;;;;;;;5.38;0.93;;;;;;;11.31;100.00;96392.72;5042148;28;20052;-76
2024/01/05 11:11:02;;;;;;;8.30;1.00;;;;;;;11.35;100.00;96383.56;5041432;28;20499;-77
2024/01/05 11:13:41;;;;;;;2.72;0.52;;;;;;;11.43;100.00;96384.50;5031860;28;20073;-78
2024/01/05 11:16:26;;;;;;;5.43;0.88;;;;;;;11.20;100.00;96381.63;5044914;28;21024;-78
2024/01/05 11:19:31;;;;;;;3.97;0.80;;;;;;;11.30;100.00;96380.31;5038094;28;20059;-77
2024/01/05 11:22:08;;;;;;;1.90;0.47;;;;;;;11.42;100.00;96378.31;5033506;28;20383;-77
2024/01/05 11:24:37;;;;;;;4.38;0.82;;;;;;;11.46;100.00;96372.97;5027618;28;20048;-78
2024/01/05 11:27:31;;;;;;;4.43;0.70;;;;;;;11.56;100.00;96365.06;5014016;28;21937;-77
2024/01/05 11:29:58;;;;;;;1.88;0.63;;;;;;;11.44;100.00;96361.69;5021059;28;20061;-76
2024/01/05 11:32:44;;;;;;;3.42;0.60;;;;;;;11.66;100.00;96358.34;5024236;28;20048;-76
2024/01/05 11:35:17;;;;;;;2.35;0.73;;;;;;;11.94;100.00;96353.59;5018790;28;20049;-78